VLVT/VTE METAR and TAF weather

Enter ICAO airport designator
Station Type Date Time Source
VLVT METAR 2019/06/19 07:30 UTC NOAA

VLVT 190730Z 20004KT 7000 SCT016 SCT040 33/25 Q1005 NOSIG


Station Type Date Time Source
VLVT Decoded METAR 2019/06/19 07:30 UTC NOAA

Vientiane, Laos (VLVT) 17-57N 102-34E 171M
Jun 19, 2019 - 03:30 AM EDT / 2019.06.19 0730 UTC
Wind: from the SSW (200 degrees) at 5 MPH (4 KT):0
Visibility: 4 mile(s):0
Sky conditions: partly cloudy
Temperature: 91 F (33 C)
Heat index: 103.5 F (39.7 C):1
Dew Point: 77 F (25 C)
Relative Humidity: 62%
Pressure (altimeter): 29.68 in. Hg (1005 hPa)
ob: VLVT 190730Z 20004KT 7000 SCT016 SCT040 33/25 Q1005 NOSIG
cycle: 7

Station Type Date Time Source
VLVT TAF 2019/06/19 06:39 UTC NOAA

TAF TAF VLVT 190500Z 1906/2006 22004KT 8000 SCT016 BKN040 SCT093
TEMPO 1912/1917 4000 TSRA SCT016 FEW027CB BKN040

Example: see airport list